Time;durP1;ratioP1;P1;durP2;ratioP2;P2;SDS_P1;SDS_P2;PMS_P1;PMS_P2;Temp;Humidity;BMP_temperature;BMP_pressure;BME280_temperature;BME280_humidity;BME280_pressure;Samples;Min_cycle;Max_cycle;Signal;HPM_P1;HPM_P2
2023/04/30 00:01:36;;;;;;;5.88;3.50;;;13.20;73.60;;;;;;4936203;29;20216;-83
2023/04/30 00:04:02;;;;;;;7.50;3.58;;;13.20;73.60;;;;;;4920134;29;20106;-83
2023/04/30 00:06:27;;;;;;;6.40;3.80;;;13.20;73.60;;;;;;4920147;29;20064;-82
2023/04/30 00:08:53;;;;;;;5.82;3.55;;;13.10;73.60;;;;;;4919883;29;20040;-82
2023/04/30 00:11:18;;;;;;;7.63;3.60;;;13.20;74.00;;;;;;4920638;29;20126;-83
2023/04/30 00:13:43;;;;;;;6.47;3.40;;;13.10;73.30;;;;;;4920434;29;20062;-83
2023/04/30 00:16:10;;;;;;;6.55;3.47;;;13.10;73.70;;;;;;4920818;29;20024;-83
2023/04/30 00:18:35;;;;;;;8.27;3.75;;;13.10;73.50;;;;;;4937741;29;20099;-83
2023/04/30 00:21:01;;;;;;;6.50;3.63;;;13.10;73.30;;;;;;4936703;29;20054;-83
2023/04/30 00:23:26;;;;;;;6.38;3.75;;;13.10;73.50;;;;;;4919501;29;20493;-83
2023/04/30 00:25:52;;;;;;;6.88;3.70;;;13.10;73.20;;;;;;4936931;29;20031;-83
2023/04/30 00:28:17;;;;;;;5.88;3.45;;;13.10;73.50;;;;;;4920094;29;20027;-83
2023/04/30 00:30:43;;;;;;;7.30;3.80;;;13.10;73.60;;;;;;4919076;29;20528;-82
2023/04/30 00:33:09;;;;;;;6.88;4.03;;;13.10;73.50;;;;;;4919119;29;20028;-83
2023/04/30 00:35:34;;;;;;;7.18;3.70;;;13.10;73.30;;;;;;4918990;29;20099;-84
2023/04/30 00:38:00;;;;;;;5.75;3.33;;;13.10;73.50;;;;;;4919041;29;20020;-83
2023/04/30 00:40:25;;;;;;;7.10;3.95;;;13.10;73.50;;;;;;4918659;29;20397;-82
2023/04/30 00:42:54;;;;;;;7.20;3.47;;;13.10;73.10;;;;;;4918206;29;20024;-83
2023/04/30 00:45:22;;;;;;;6.35;3.75;;;13.10;73.10;;;;;;4918242;29;20027;-83
2023/04/30 00:47:48;;;;;;;7.60;3.90;;;13.10;73.30;;;;;;4917999;29;20020;-82
2023/04/30 00:50:15;;;;;;;8.88;4.25;;;13.10;73.40;;;;;;4918159;29;20028;-82
2023/04/30 00:52:44;;;;;;;7.85;3.80;;;13.10;73.20;;;;;;4918080;29;20460;-83
2023/04/30 00:55:13;;;;;;;7.85;3.80;;;13.00;73.20;;;;;;4918229;29;20460;-81
2023/04/30 00:57:39;;;;;;;6.03;3.75;;;13.00;73.30;;;;;;4917942;29;20024;-82
2023/04/30 01:00:08;;;;;;;6.80;3.47;;;13.10;73.30;;;;;;4918675;29;20031;-81
2023/04/30 01:02:34;;;;;;;5.93;3.72;;;13.10;73.50;;;;;;4918803;29;20038;-83
2023/04/30 01:05:01;;;;;;;6.25;3.70;;;13.00;73.20;;;;;;4918558;29;20035;-83
2023/04/30 01:07:27;;;;;;;6.50;3.60;;;13.10;73.40;;;;;;4918493;29;20028;-84
2023/04/30 01:09:53;;;;;;;7.38;3.90;;;13.00;73.20;;;;;;4918045;29;20400;-83
2023/04/30 01:12:31;;;;;;;8.52;3.95;;;12.90;72.90;;;;;;4919319;29;20681;-84
2023/04/30 01:15:08;;;;;;;5.70;3.45;;;13.00;73.20;;;;;;4930570;29;20091;-84
2023/04/30 01:17:47;;;;;;;7.25;3.90;;;13.00;72.90;;;;;;4930044;29;20067;-84
2023/04/30 01:20:12;;;;;;;6.60;3.70;;;13.00;73.10;;;;;;4929382;29;20031;-85
2023/04/30 01:22:49;;;;;;;5.90;3.47;;;13.00;73.10;;;;;;4927100;29;20121;-84
2023/04/30 01:25:43;;;;;;;7.35;3.80;;;13.00;73.40;;;;;;4921262;29;20393;-84
2023/04/30 01:28:18;;;;;;;7.10;3.45;;;13.00;73.00;;;;;;4933943;29;20024;-88
2023/04/30 01:30:45;;;;;;;6.72;3.47;;;13.00;73.00;;;;;;4933240;29;20039;-87
2023/04/30 01:33:11;;;;;;;6.68;3.80;;;13.00;72.90;;;;;;4932106;29;20024;-86
2023/04/30 01:36:09;;;;;;;6.40;3.80;;;13.00;73.10;;;;;;4932571;29;20031;-83
2023/04/30 01:39:02;;;;;;;6.25;3.63;;;13.00;72.70;;;;;;4921114;29;20526;-84
2023/04/30 01:41:35;;;;;;;7.00;3.53;;;13.00;73.30;;;;;;4931415;29;20095;-84
2023/04/30 01:44:41;;;;;;;6.82;3.90;;;13.10;73.20;;;;;;4923967;29;20473;-84
2023/04/30 01:47:18;;;;;;;7.03;3.80;;;13.00;72.60;;;;;;4922980;29;20039;-84
2023/04/30 01:49:55;;;;;;;7.97;4.13;;;13.00;73.10;;;;;;4940815;29;20092;-83
2023/04/30 01:52:40;;;;;;;5.97;3.60;;;13.00;72.90;;;;;;4930066;29;20059;-83
2023/04/30 01:55:41;;;;;;;6.28;3.85;;;13.10;72.80;;;;;;4929632;29;20070;-84
2023/04/30 01:58:11;;;;;;;7.28;4.30;;;13.00;72.50;;;;;;4915444;29;20046;-83
2023/04/30 02:00:36;;;;;;;7.70;4.10;;;13.00;72.80;;;;;;4928514;29;20080;-84
2023/04/30 02:03:02;;;;;;;7.50;4.07;;;13.00;73.10;;;;;;4927665;29;20389;-85
2023/04/30 02:05:28;;;;;;;7.15;4.25;;;13.10;73.00;;;;;;4928782;29;20036;-84
2023/04/30 02:07:53;;;;;;;7.05;4.22;;;12.90;72.60;;;;;;4932038;29;20024;-86
2023/04/30 02:10:21;;;;;;;6.97;3.85;;;13.00;72.40;;;;;;4909890;29;20040;-85
2023/04/30 02:12:47;;;;;;;6.88;3.95;;;13.00;72.80;;;;;;4912162;29;20075;-85
2023/04/30 02:15:13;;;;;;;6.88;4.00;;;13.00;72.60;;;;;;4912496;29;20099;-87
2023/04/30 02:17:38;;;;;;;7.45;3.80;;;13.00;72.80;;;;;;4911677;29;20527;-83
2023/04/30 02:20:04;;;;;;;6.85;4.10;;;12.90;72.90;;;;;;4911455;29;20032;-82
2023/04/30 02:22:30;;;;;;;6.40;3.90;;;12.90;72.80;;;;;;4910971;29;20039;-84
2023/04/30 02:24:56;;;;;;;7.50;4.25;;;12.90;72.60;;;;;;4911992;29;20398;-86
2023/04/30 02:27:24;;;;;;;7.22;4.03;;;13.00;72.60;;;;;;4910550;29;20024;-85
2023/04/30 02:29:51;;;;;;;8.32;3.85;;;12.90;72.40;;;;;;4910883;29;20032;-84
2023/04/30 02:32:17;;;;;;;6.95;4.10;;;12.90;72.80;;;;;;4910665;29;20035;-84
2023/04/30 02:34:43;;;;;;;7.70;3.60;;;12.90;72.60;;;;;;4909849;29;20481;-84
2023/04/30 02:37:08;;;;;;;7.28;4.00;;;12.90;72.50;;;;;;4909092;29;20536;-85
2023/04/30 02:39:34;;;;;;;6.70;4.13;;;12.90;72.80;;;;;;4908268;29;20085;-84
2023/04/30 02:41:59;;;;;;;6.65;3.88;;;12.90;72.60;;;;;;4906440;29;20035;-84
2023/04/30 02:44:25;;;;;;;7.50;4.55;;;12.90;72.60;;;;;;4907466;29;20032;-83
2023/04/30 02:46:51;;;;;;;7.22;4.03;;;12.90;72.50;;;;;;4902047;29;20507;-84
2023/04/30 02:49:16;;;;;;;7.07;4.18;;;12.90;72.60;;;;;;4906238;29;20028;-83
2023/04/30 02:51:42;;;;;;;8.77;4.53;;;12.90;72.60;;;;;;4925997;29;20040;-83
2023/04/30 02:54:08;;;;;;;7.45;4.07;;;12.90;72.40;;;;;;4908308;29;20032;-83
2023/04/30 02:56:33;;;;;;;8.93;5.20;;;12.90;72.50;;;;;;4907270;29;20402;-84
2023/04/30 02:58:59;;;;;;;9.68;4.20;;;12.90;72.40;;;;;;4906734;29;20482;-84
2023/04/30 03:01:25;;;;;;;8.88;4.38;;;12.90;72.40;;;;;;4906591;29;20024;-83
2023/04/30 03:03:50;;;;;;;7.15;4.22;;;12.90;72.40;;;;;;4907238;29;20060;-83
2023/04/30 03:06:16;;;;;;;7.40;4.20;;;12.90;72.60;;;;;;4906384;29;20032;-83
2023/04/30 03:08:41;;;;;;;6.68;4.30;;;12.90;72.50;;;;;;4922714;29;20087;-83
2023/04/30 03:11:07;;;;;;;7.15;4.20;;;12.90;72.50;;;;;;4905351;29;20492;-83
2023/04/30 03:13:32;;;;;;;7.05;4.50;;;12.90;72.40;;;;;;4905053;29;20039;-84
2023/04/30 03:15:59;;;;;;;8.18;4.60;;;12.90;72.40;;;;;;4905062;29;20393;-84
2023/04/30 03:18:26;;;;;;;6.75;4.00;;;12.90;72.20;;;;;;4903452;29;20024;-83
2023/04/30 03:20:52;;;;;;;8.43;4.25;;;12.90;72.40;;;;;;4901446;29;20031;-83
2023/04/30 03:23:17;;;;;;;6.68;4.07;;;12.90;71.90;;;;;;4901680;29;20024;-84
2023/04/30 03:25:43;;;;;;;7.18;4.55;;;12.90;72.10;;;;;;4904429;29;20397;-83
2023/04/30 03:28:08;;;;;;;6.90;4.13;;;12.90;72.20;;;;;;4904477;29;20084;-83
2023/04/30 03:30:34;;;;;;;8.93;4.60;;;12.90;72.20;;;;;;4919746;29;20063;-83
2023/04/30 03:32:59;;;;;;;7.78;4.38;;;12.90;72.50;;;;;;4900603;29;20028;-83
2023/04/30 03:35:25;;;;;;;8.02;4.47;;;12.90;72.00;;;;;;4900076;29;20498;-83
2023/04/30 03:37:50;;;;;;;7.13;4.15;;;12.90;71.90;;;;;;4900775;29;20028;-83
2023/04/30 03:40:16;;;;;;;7.05;4.30;;;12.80;71.90;;;;;;4900533;29;20031;-83
2023/04/30 03:42:41;;;;;;;8.55;4.60;;;13.00;71.80;;;;;;4900039;29;20466;-82
2023/04/30 03:45:07;;;;;;;8.25;4.57;;;12.80;71.90;;;;;;4902487;29;20032;-83
2023/04/30 03:47:34;;;;;;;9.43;4.07;;;12.90;71.80;;;;;;4901051;29;20031;-84
2023/04/30 03:50:00;;;;;;;8.52;4.38;;;12.90;71.90;;;;;;4899051;29;20157;-82
2023/04/30 03:52:26;;;;;;;9.02;4.07;;;12.90;71.90;;;;;;4901862;29;20534;-83
2023/04/30 03:54:51;;;;;;;7.55;4.05;;;12.80;71.60;;;;;;4900354;29;20032;-83
2023/04/30 03:57:17;;;;;;;8.93;5.05;;;12.80;71.70;;;;;;4899986;29;20098;-85
2023/04/30 03:59:42;;;;;;;7.72;4.50;;;12.80;71.60;;;;;;4899772;29;20035;-83
2023/04/30 04:02:08;;;;;;;7.18;4.63;;;12.80;71.50;;;;;;4899678;29;20056;-83
2023/04/30 04:04:34;;;;;;;8.57;4.70;;;12.80;71.40;;;;;;4899698;29;20024;-84
2023/04/30 04:07:00;;;;;;;9.57;4.85;;;12.80;71.50;;;;;;4899485;29;20024;-83
2023/04/30 04:09:26;;;;;;;10.05;4.43;;;12.80;71.80;;;;;;4898523;29;20042;-84
2023/04/30 04:11:51;;;;;;;8.38;4.55;;;12.80;71.60;;;;;;4891398;29;20563;-83
2023/04/30 04:14:17;;;;;;;7.75;4.53;;;12.80;71.60;;;;;;4920341;29;20027;-84
2023/04/30 04:16:43;;;;;;;8.18;4.65;;;12.80;71.60;;;;;;4918755;29;20028;-83
2023/04/30 04:19:08;;;;;;;8.75;4.80;;;12.80;71.50;;;;;;4918795;29;20020;-83
2023/04/30 04:21:34;;;;;;;7.97;4.60;;;12.80;71.40;;;;;;4918523;29;20369;-83
2023/04/30 04:24:07;;;;;;;8.25;4.28;;;12.80;71.50;;;;;;4918436;29;20027;-83
2023/04/30 04:26:33;;;;;;;8.50;4.15;;;12.70;71.60;;;;;;4918331;29;20027;-82
2023/04/30 04:28:58;;;;;;;7.60;4.47;;;12.80;71.50;;;;;;4919439;29;20075;-86
2023/04/30 04:31:24;;;;;;;8.38;4.40;;;12.90;71.70;;;;;;4911416;29;20072;-83
2023/04/30 04:33:56;;;;;;;8.40;4.30;;;12.80;71.50;;;;;;4900032;29;20161;-85
2023/04/30 04:36:22;;;;;;;9.05;4.72;;;12.80;71.40;;;;;;4899599;29;20110;-84
2023/04/30 04:38:48;;;;;;;7.90;4.60;;;12.90;71.60;;;;;;4899648;29;20115;-82
2023/04/30 04:41:13;;;;;;;8.20;4.53;;;12.80;71.50;;;;;;4899386;29;20044;-83
2023/04/30 04:43:39;;;;;;;10.30;4.63;;;12.80;71.40;;;;;;4899736;29;20510;-83
2023/04/30 04:46:06;;;;;;;7.57;4.40;;;12.80;71.30;;;;;;4899862;29;20028;-83
2023/04/30 04:48:32;;;;;;;7.30;4.03;;;12.80;71.40;;;;;;4914811;29;20548;-83
2023/04/30 04:50:57;;;;;;;7.35;4.28;;;12.80;71.30;;;;;;4926566;29;20040;-84
2023/04/30 04:53:23;;;;;;;9.50;4.38;;;12.80;71.30;;;;;;4913498;29;20028;-88
2023/04/30 04:55:48;;;;;;;8.73;4.10;;;12.90;71.40;;;;;;4914468;29;20031;-84
2023/04/30 04:58:13;;;;;;;7.20;4.40;;;12.80;71.40;;;;;;4910527;29;20020;-83
2023/04/30 05:00:39;;;;;;;8.35;4.22;;;12.80;71.40;;;;;;4914116;29;20501;-85
2023/04/30 05:03:04;;;;;;;8.50;4.38;;;12.80;71.50;;;;;;4915525;29;20028;-84
2023/04/30 05:05:30;;;;;;;9.90;4.38;;;12.70;71.30;;;;;;4916575;29;20037;-83
2023/04/30 05:07:55;;;;;;;8.02;4.00;;;12.90;71.40;;;;;;4928508;23;20016;-83
2023/04/30 05:10:21;;;;;;;7.47;3.95;;;12.80;71.30;;;;;;4897979;29;20508;-82
2023/04/30 05:12:46;;;;;;;8.23;4.07;;;12.90;71.30;;;;;;4883787;29;20053;-83
2023/04/30 05:15:12;;;;;;;7.95;4.20;;;12.80;71.30;;;;;;4902640;29;20482;-83
2023/04/30 05:17:37;;;;;;;8.05;3.83;;;12.80;71.20;;;;;;4919540;29;20067;-83
2023/04/30 05:20:03;;;;;;;8.30;4.00;;;12.80;71.40;;;;;;4919602;29;20020;-85
2023/04/30 05:22:29;;;;;;;8.00;3.80;;;12.90;71.40;;;;;;4911202;29;20035;-83
2023/04/30 05:24:54;;;;;;;7.35;3.90;;;12.80;71.30;;;;;;4921359;29;20020;-83
2023/04/30 05:27:20;;;;;;;7.57;3.55;;;12.90;71.40;;;;;;4938307;29;20515;-83
2023/04/30 05:29:46;;;;;;;7.40;4.03;;;12.90;71.60;;;;;;4921262;29;20028;-83
2023/04/30 05:32:11;;;;;;;6.72;3.65;;;12.90;71.60;;;;;;4938090;29;20454;-83
2023/04/30 05:34:36;;;;;;;7.43;3.97;;;12.80;71.70;;;;;;4938203;29;20067;-83
2023/04/30 05:37:02;;;;;;;7.07;3.70;;;12.80;71.40;;;;;;4920278;29;20034;-82
2023/04/30 05:39:28;;;;;;;7.47;3.38;;;12.90;71.70;;;;;;4920906;29;20659;-83
2023/04/30 05:41:53;;;;;;;8.57;4.05;;;12.80;72.00;;;;;;4921047;29;20016;-83
2023/04/30 05:44:19;;;;;;;7.43;3.65;;;12.80;72.00;;;;;;4920981;29;20078;-82
2023/04/30 05:46:44;;;;;;;7.85;4.20;;;12.80;71.80;;;;;;4920961;29;20027;-84
2023/04/30 05:49:10;;;;;;;8.45;4.13;;;12.80;71.80;;;;;;4937822;29;20100;-84
2023/04/30 05:51:35;;;;;;;7.78;4.25;;;12.90;71.70;;;;;;4938000;29;20055;-83
2023/04/30 05:54:01;;;;;;;8.00;3.88;;;12.90;71.80;;;;;;4920838;29;20432;-82
2023/04/30 05:56:26;;;;;;;8.30;4.05;;;12.80;71.70;;;;;;4937780;29;20035;-83
2023/04/30 05:58:52;;;;;;;9.75;4.20;;;12.90;72.00;;;;;;4920796;29;20035;-82
2023/04/30 06:01:19;;;;;;;9.63;4.20;;;12.90;71.70;;;;;;4937699;29;20028;-81
2023/04/30 06:03:47;;;;;;;9.27;3.75;;;12.90;71.80;;;;;;4919927;29;20028;-83
2023/04/30 06:06:13;;;;;;;8.10;3.80;;;12.90;71.70;;;;;;4913496;29;20851;-82
2023/04/30 06:08:43;;;;;;;7.57;3.80;;;12.90;71.80;;;;;;4913972;29;20044;-82
2023/04/30 06:11:09;;;;;;;7.78;3.60;;;12.90;71.60;;;;;;4899294;29;20027;-81
2023/04/30 06:13:35;;;;;;;7.40;3.83;;;12.90;71.80;;;;;;4898264;29;20035;-82
2023/04/30 06:16:01;;;;;;;8.90;4.10;;;12.90;71.80;;;;;;4899528;29;20612;-82
2023/04/30 06:18:26;;;;;;;10.05;4.25;;;12.90;71.80;;;;;;4899939;29;20028;-82
2023/04/30 06:20:52;;;;;;;7.97;3.95;;;12.90;71.80;;;;;;4899788;29;20095;-83
2023/04/30 06:23:17;;;;;;;6.70;3.60;;;13.00;71.90;;;;;;4899263;29;20076;-81
2023/04/30 06:25:43;;;;;;;7.80;3.20;;;13.00;71.80;;;;;;4899157;29;20046;-82
2023/04/30 06:28:08;;;;;;;8.80;3.60;;;13.00;71.80;;;;;;4898738;29;20039;-83
2023/04/30 06:30:35;;;;;;;7.78;3.47;;;13.00;71.40;;;;;;4915219;29;20024;-82
2023/04/30 06:33:01;;;;;;;6.97;3.30;;;13.10;71.70;;;;;;4897730;29;20028;-82
2023/04/30 06:35:26;;;;;;;8.13;3.58;;;13.10;71.60;;;;;;4898023;29;20035;-82
2023/04/30 06:37:52;;;;;;;9.00;3.60;;;13.10;71.50;;;;;;4898028;29;20028;-82
2023/04/30 06:40:17;;;;;;;12.43;4.05;;;13.00;71.40;;;;;;4899531;29;20481;-81
2023/04/30 06:42:43;;;;;;;10.40;3.60;;;13.10;71.40;;;;;;4899484;29;20032;-82
2023/04/30 06:45:09;;;;;;;9.93;3.67;;;13.10;71.20;;;;;;4916738;29;20054;-81
2023/04/30 06:47:36;;;;;;;9.27;3.45;;;13.10;71.10;;;;;;4916920;29;20031;-82
2023/04/30 06:50:02;;;;;;;8.57;2.80;;;13.10;70.90;;;;;;4916610;29;20032;-82
2023/04/30 06:52:29;;;;;;;10.25;3.15;;;13.00;70.70;;;;;;4934108;29;20503;-81
2023/04/30 06:54:54;;;;;;;9.30;2.95;;;13.20;70.80;;;;;;4916763;29;20513;-82
2023/04/30 06:57:20;;;;;;;8.88;3.28;;;13.20;71.00;;;;;;4932490;29;20063;-80
2023/04/30 06:59:46;;;;;;;9.38;2.75;;;13.30;71.40;;;;;;4932778;29;20027;-83
2023/04/30 07:02:12;;;;;;;12.70;3.45;;;13.30;71.00;;;;;;4915793;29;20055;-81
2023/04/30 07:04:37;;;;;;;9.88;3.10;;;13.30;71.00;;;;;;4897592;29;20059;-82
2023/04/30 07:07:03;;;;;;;9.52;3.03;;;13.40;71.10;;;;;;4897043;29;20044;-82
2023/04/30 07:09:28;;;;;;;9.50;3.25;;;13.40;71.20;;;;;;4896964;29;20095;-82
2023/04/30 07:11:54;;;;;;;7.05;2.83;;;13.50;71.20;;;;;;4897295;29;20036;-80
2023/04/30 07:14:20;;;;;;;10.32;3.03;;;13.50;71.30;;;;;;4896755;29;20500;-81
2023/04/30 07:16:48;;;;;;;8.30;2.85;;;13.50;71.40;;;;;;4896472;29;20032;-83
2023/04/30 07:19:13;;;;;;;11.40;3.53;;;13.50;71.50;;;;;;4897076;29;20502;-83
2023/04/30 07:21:39;;;;;;;8.73;3.08;;;13.60;71.60;;;;;;4896610;29;20066;-83
2023/04/30 07:24:05;;;;;;;7.82;3.20;;;13.60;71.60;;;;;;4896425;29;20062;-83
2023/04/30 07:26:30;;;;;;;7.18;2.67;;;13.60;71.80;;;;;;4896617;29;20024;-82
2023/04/30 07:28:56;;;;;;;7.82;2.78;;;13.70;72.00;;;;;;4896495;29;20028;-83
2023/04/30 07:31:21;;;;;;;6.30;2.60;;;13.60;72.00;;;;;;4896761;29;20047;-80
2023/04/30 07:33:49;;;;;;;6.38;2.70;;;13.70;72.00;;;;;;4896846;29;20449;-85
2023/04/30 07:36:15;;;;;;;12.00;2.80;;;13.70;72.00;;;;;;4896709;29;20512;-80
2023/04/30 07:38:41;;;;;;;10.00;3.28;;;13.70;71.50;;;;;;4913544;29;20028;-85
2023/04/30 07:41:08;;;;;;;8.60;2.78;;;13.70;71.70;;;;;;4896523;29;20024;-83
2023/04/30 07:43:34;;;;;;;12.50;3.08;;;13.70;71.70;;;;;;4896972;29;20055;-85
2023/04/30 07:46:40;;;;;;;11.80;3.03;;;13.70;71.60;;;;;;4894335;29;20056;-84
2023/04/30 07:49:33;;;;;;;9.98;3.20;;;13.80;71.70;;;;;;4815765;29;20539;-83
2023/04/30 07:52:15;;;;;;;10.35;2.80;;;13.80;71.90;;;;;;4854235;29;20044;-84
2023/04/30 07:54:46;;;;;;;10.60;3.30;;;13.70;71.60;;;;;;4892871;29;20095;-85
2023/04/30 07:57:13;;;;;;;9.73;3.15;;;13.80;71.90;;;;;;4896935;29;20055;-84
2023/04/30 07:59:41;;;;;;;8.80;2.80;;;13.80;72.00;;;;;;4896622;29;20070;-84
2023/04/30 08:02:11;;;;;;;7.72;3.30;;;13.90;72.00;;;;;;4895752;29;20028;-85
2023/04/30 08:04:41;;;;;;;8.77;2.45;;;13.90;72.00;;;;;;4891631;29;20074;-84
2023/04/30 08:07:09;;;;;;;9.35;2.92;;;13.80;71.90;;;;;;4889587;29;20039;-84
2023/04/30 08:09:34;;;;;;;8.70;2.90;;;14.00;72.00;;;;;;4884619;29;20092;-84
2023/04/30 08:12:00;;;;;;;8.43;3.00;;;14.10;72.10;;;;;;4884494;29;20033;-83
2023/04/30 08:14:31;;;;;;;10.80;3.00;;;13.90;71.90;;;;;;4896165;29;20039;-85
2023/04/30 08:16:59;;;;;;;8.45;3.00;;;14.00;72.00;;;;;;4896323;29;20067;-85
2023/04/30 08:19:28;;;;;;;13.07;2.80;;;14.70;72.40;;;;;;4893315;29;20040;-84
2023/04/30 08:21:53;;;;;;;10.77;2.67;;;14.00;71.80;;;;;;4893320;29;20032;-83
2023/04/30 08:24:19;;;;;;;11.85;3.22;;;13.90;71.90;;;;;;4888987;29;20545;-83
2023/04/30 08:26:47;;;;;;;8.82;2.60;;;14.10;72.00;;;;;;4894514;29;20548;-84
2023/04/30 08:29:13;;;;;;;8.63;3.17;;;14.00;71.70;;;;;;4896433;29;20032;-84
2023/04/30 08:31:43;;;;;;;11.40;3.03;;;14.00;71.80;;;;;;4896458;29;20044;-85
2023/04/30 08:34:18;;;;;;;10.05;2.90;;;14.40;72.10;;;;;;4896628;29;20056;-84
2023/04/30 08:36:47;;;;;;;9.43;2.95;;;14.20;71.90;;;;;;4899808;29;20028;-83
2023/04/30 08:39:12;;;;;;;7.50;2.90;;;14.20;71.90;;;;;;4900308;29;20024;-84
2023/04/30 08:41:50;;;;;;;8.02;2.90;;;13.90;71.40;;;;;;4900363;29;20035;-85
2023/04/30 08:44:20;;;;;;;9.63;3.13;;;14.20;71.70;;;;;;4900452;29;20323;-84
2023/04/30 08:46:47;;;;;;;9.35;3.03;;;14.20;71.60;;;;;;4900349;29;20120;-85
2023/04/30 08:49:31;;;;;;;7.35;2.70;;;14.20;71.60;;;;;;4898460;29;20028;-84
2023/04/30 08:52:00;;;;;;;8.98;2.90;;;14.30;71.50;;;;;;4901351;29;20124;-83
2023/04/30 08:54:29;;;;;;;7.00;2.88;;;14.20;71.40;;;;;;4900542;29;20036;-84
2023/04/30 08:56:55;;;;;;;8.15;2.72;;;14.20;71.40;;;;;;4900542;29;20134;-84
2023/04/30 08:59:20;;;;;;;8.25;2.63;;;14.30;71.50;;;;;;4894380;29;20028;-83
2023/04/30 09:01:48;;;;;;;8.63;3.30;;;14.30;71.50;;;;;;4896361;29;20071;-83
2023/04/30 09:04:14;;;;;;;8.63;2.72;;;14.30;71.50;;;;;;4888456;29;20028;-83
2023/04/30 09:06:40;;;;;;;9.77;2.70;;;14.30;71.40;;;;;;4898796;29;20036;-84
2023/04/30 09:09:15;;;;;;;7.20;2.88;;;14.40;71.50;;;;;;4889916;29;20063;-83
2023/04/30 09:12:11;;;;;;;9.57;3.20;;;14.40;71.40;;;;;;4885894;29;20514;-86
2023/04/30 09:14:40;;;;;;;6.70;2.72;;;14.40;71.40;;;;;;4891958;29;20131;-84
2023/04/30 09:17:20;;;;;;;5.30;2.33;;;14.80;71.50;;;;;;4900545;29;20032;-85
2023/04/30 09:19:46;;;;;;;9.38;2.67;;;14.30;71.30;;;;;;4900498;29;20032;-85
2023/04/30 09:22:20;;;;;;;6.80;3.05;;;14.60;71.60;;;;;;4900489;29;20545;-84
2023/04/30 09:24:52;;;;;;;8.68;3.22;;;14.50;71.50;;;;;;4890327;29;20025;-83
2023/04/30 09:27:52;;;;;;;9.35;2.95;;;14.20;71.30;;;;;;4897917;29;20489;-84
2023/04/30 09:30:30;;;;;;;8.93;3.35;;;14.60;71.50;;;;;;4898536;29;20048;-85
2023/04/30 09:32:58;;;;;;;7.53;2.80;;;14.50;71.40;;;;;;4900406;29;20039;-86
2023/04/30 09:35:36;;;;;;;6.60;2.72;;;14.50;71.30;;;;;;4899538;29;20028;-84
2023/04/30 09:38:02;;;;;;;5.45;2.80;;;14.50;71.50;;;;;;4900065;29;20027;-84
2023/04/30 09:40:39;;;;;;;7.30;2.78;;;14.60;71.40;;;;;;4900284;29;20031;-84
2023/04/30 09:43:05;;;;;;;6.65;2.85;;;14.50;71.40;;;;;;4900058;29;20048;-85
2023/04/30 09:45:54;;;;;;;6.13;2.58;;;14.50;71.30;;;;;;4897848;29;20438;-85
2023/04/30 09:48:21;;;;;;;5.55;2.60;;;14.50;71.40;;;;;;4899962;29;20116;-82
2023/04/30 09:50:48;;;;;;;8.38;2.80;;;14.60;71.40;;;;;;4901885;29;20028;-83
2023/04/30 09:53:16;;;;;;;7.00;2.85;;;14.50;71.50;;;;;;4901223;29;20020;-82
2023/04/30 09:55:44;;;;;;;4.53;2.33;;;14.60;71.40;;;;;;4900306;29;20028;-83
2023/04/30 09:58:10;;;;;;;5.95;2.80;;;14.50;71.30;;;;;;4901138;29;20500;-82
2023/04/30 10:00:37;;;;;;;6.75;2.60;;;14.60;71.50;;;;;;4901259;29;20039;-82
2023/04/30 10:03:07;;;;;;;6.35;2.53;;;14.60;71.50;;;;;;4901188;29;20028;-85
2023/04/30 10:05:41;;;;;;;7.32;2.35;;;14.60;72.00;;;;;;4901335;29;20199;-82
2023/04/30 10:08:12;;;;;;;7.82;2.53;;;14.60;71.40;;;;;;4917904;29;20028;-83
2023/04/30 10:10:41;;;;;;;5.47;2.60;;;14.60;71.40;;;;;;4901414;29;20115;-83
2023/04/30 10:13:13;;;;;;;6.65;2.58;;;14.60;71.40;;;;;;4917943;29;20040;-82
2023/04/30 10:15:42;;;;;;;5.22;2.20;;;14.60;71.50;;;;;;4917929;29;20027;-83
2023/04/30 10:18:25;;;;;;;7.22;2.55;;;14.60;71.60;;;;;;4917769;29;20036;-83
2023/04/30 10:20:53;;;;;;;5.15;2.60;;;14.60;71.50;;;;;;4900798;29;20552;-83
2023/04/30 10:23:21;;;;;;;6.35;3.00;;;14.60;72.00;;;;;;4917661;29;20035;-83
2023/04/30 10:25:47;;;;;;;5.07;2.50;;;14.60;71.50;;;;;;4901102;29;20035;-82
2023/04/30 10:28:13;;;;;;;6.30;2.60;;;14.60;71.50;;;;;;4900726;29;20115;-83
2023/04/30 10:30:42;;;;;;;6.80;2.65;;;14.60;71.50;;;;;;4900673;29;20220;-82
2023/04/30 10:33:14;;;;;;;5.32;2.65;;;14.70;71.50;;;;;;4900569;29;20024;-83
2023/04/30 10:35:59;;;;;;;7.80;2.70;;;14.60;71.30;;;;;;4917584;29;20020;-84
2023/04/30 10:38:27;;;;;;;5.28;2.58;;;14.70;71.40;;;;;;4895199;29;20036;-84
2023/04/30 10:41:00;;;;;;;6.68;2.45;;;14.70;71.20;;;;;;4900770;29;20584;-82
2023/04/30 10:43:28;;;;;;;5.18;2.60;;;14.70;71.40;;;;;;4895293;29;20118;-80
2023/04/30 10:45:56;;;;;;;6.15;2.63;;;14.70;71.20;;;;;;4886444;29;20029;-82
2023/04/30 10:48:26;;;;;;;5.30;2.17;;;14.70;71.30;;;;;;4882556;29;20084;-82
2023/04/30 10:50:56;;;;;;;6.25;2.53;;;14.70;71.60;;;;;;4898949;29;20379;-82
2023/04/30 10:53:22;;;;;;;6.15;2.50;;;14.70;71.50;;;;;;4881947;29;20039;-81
2023/04/30 10:55:55;;;;;;;7.65;2.85;;;14.70;71.70;;;;;;4898928;29;20032;-82
2023/04/30 10:58:35;;;;;;;5.68;2.38;;;14.70;71.70;;;;;;4881614;29;20060;-82
2023/04/30 11:01:03;;;;;;;6.80;2.30;;;14.70;71.40;;;;;;4881733;29;20092;-84
2023/04/30 11:03:29;;;;;;;14.77;2.88;;;14.70;71.90;;;;;;4881962;29;20025;-82
2023/04/30 11:05:55;;;;;;;14.77;3.05;;;14.70;71.50;;;;;;4881339;29;20107;-80
2023/04/30 11:11:03;;;;;;;9.27;2.75;;;14.70;71.70;;;;;;4878044;29;20060;-81
2023/04/30 11:13:42;;;;;;;7.05;2.35;;;14.70;71.50;;;;;;4862900;29;20021;-83
2023/04/30 11:16:08;;;;;;;7.38;2.72;;;14.70;71.60;;;;;;4879368;29;20426;-81
2023/04/30 11:18:41;;;;;;;8.85;2.88;;;14.70;71.60;;;;;;4862493;29;20144;-82
2023/04/30 11:21:07;;;;;;;8.57;2.58;;;14.70;71.70;;;;;;4862657;29;20029;-81
2023/04/30 11:23:34;;;;;;;11.15;2.60;;;14.70;71.70;;;;;;4863060;29;20041;-81
2023/04/30 11:26:00;;;;;;;9.73;2.38;;;14.70;71.80;;;;;;4862392;29;20025;-81
2023/04/30 11:28:27;;;;;;;8.00;2.40;;;14.70;72.00;;;;;;4862404;29;20089;-81
2023/04/30 11:30:57;;;;;;;9.60;2.47;;;14.70;71.80;;;;;;4862283;29;20064;-81
2023/04/30 11:33:26;;;;;;;8.57;2.40;;;14.70;71.80;;;;;;4862184;29;20068;-82
2023/04/30 11:35:52;;;;;;;10.48;2.70;;;14.70;72.50;;;;;;4862102;29;20029;-81
2023/04/30 11:38:25;;;;;;;7.47;2.30;;;14.80;72.00;;;;;;4862222;29;20026;-81
2023/04/30 11:40:51;;;;;;;6.32;2.50;;;14.70;72.00;;;;;;4862025;29;20051;-81
2023/04/30 11:43:35;;;;;;;7.35;2.05;;;14.70;72.10;;;;;;4862158;29;20111;-82
2023/04/30 11:46:10;;;;;;;6.55;2.60;;;14.70;72.10;;;;;;4862185;29;20029;-81
2023/04/30 11:48:38;;;;;;;9.93;3.13;;;14.70;72.10;;;;;;4862181;29;20066;-81
2023/04/30 11:51:25;;;;;;;5.43;2.10;;;14.70;72.10;;;;;;4862068;29;20036;-81
2023/04/30 11:53:52;;;;;;;8.73;2.22;;;14.70;72.10;;;;;;4862145;29;20064;-81
2023/04/30 11:56:23;;;;;;;5.07;2.00;;;14.70;71.90;;;;;;4878692;29;20039;-82
2023/04/30 11:58:50;;;;;;;5.32;2.20;;;14.70;72.10;;;;;;4861791;29;20482;-81
2023/04/30 12:01:16;;;;;;;6.45;2.17;;;14.70;71.90;;;;;;4861604;29;20052;-83
2023/04/30 12:03:47;;;;;;;7.95;2.40;;;14.70;72.20;;;;;;4861760;29;20058;-81
2023/04/30 12:06:23;;;;;;;7.13;2.38;;;14.70;72.30;;;;;;4879493;29;20482;-83
2023/04/30 12:08:51;;;;;;;5.50;2.30;;;14.60;72.40;;;;;;4864239;29;20402;-83
2023/04/30 12:11:25;;;;;;;5.40;2.30;;;14.60;72.20;;;;;;4863725;29;20037;-82
2023/04/30 12:13:52;;;;;;;5.22;2.10;;;14.60;72.10;;;;;;4864174;29;20161;-83
2023/04/30 12:16:18;;;;;;;6.57;2.58;;;14.70;72.20;;;;;;4864173;29;20033;-83
2023/04/30 12:18:44;;;;;;;4.97;2.30;;;14.60;72.20;;;;;;4864580;29;20085;-83
2023/04/30 12:21:10;;;;;;;4.97;1.92;;;14.60;72.20;;;;;;4864059;29;20116;-83
2023/04/30 12:23:36;;;;;;;4.15;1.88;;;14.60;72.20;;;;;;4879809;29;20109;-81
2023/04/30 12:26:02;;;;;;;5.72;2.25;;;14.60;72.30;;;;;;4863057;29;20394;-82
2023/04/30 12:28:27;;;;;;;6.03;2.53;;;14.60;72.20;;;;;;4861423;29;20120;-84
2023/04/30 12:30:53;;;;;;;5.60;2.63;;;14.60;72.30;;;;;;4863249;29;20128;-83
2023/04/30 12:33:18;;;;;;;5.43;2.25;;;14.60;72.40;;;;;;4863579;29;20497;-83
2023/04/30 12:35:44;;;;;;;4.85;2.10;;;14.60;72.50;;;;;;4880213;29;20032;-81
2023/04/30 12:38:10;;;;;;;5.38;2.10;;;14.60;72.50;;;;;;4879851;29;20487;-82
2023/04/30 12:40:35;;;;;;;5.57;1.75;;;14.60;72.60;;;;;;4861915;29;20026;-82
2023/04/30 12:43:06;;;;;;;5.28;2.00;;;14.60;72.60;;;;;;4861920;29;20105;-83
2023/04/30 12:45:47;;;;;;;4.60;1.80;;;14.60;72.70;;;;;;4862951;29;20055;-82
2023/04/30 12:48:14;;;;;;;3.17;1.77;;;14.60;72.70;;;;;;4879682;29;20073;-83
2023/04/30 12:50:40;;;;;;;5.03;2.17;;;14.50;72.70;;;;;;4862194;29;20483;-82
2023/04/30 12:53:06;;;;;;;4.07;2.03;;;14.50;72.70;;;;;;4862627;29;20029;-83
2023/04/30 12:55:34;;;;;;;4.82;1.92;;;14.50;72.90;;;;;;4862741;29;20025;-83